createdAt,value
2023-02-13T00:02:24.034Z,78.58
2023-02-13T00:04:56.127Z,78.55
2023-02-13T00:07:28.287Z,78.57
2023-02-13T00:10:00.638Z,78.54
2023-02-13T00:12:33.281Z,78.56
2023-02-13T00:15:06.515Z,78.43
2023-02-13T00:17:38.970Z,78.41
2023-02-13T00:20:13.004Z,78.44
2023-02-13T00:22:45.153Z,78.42
2023-02-13T00:25:17.402Z,78.39
2023-02-13T00:27:49.546Z,78.39
2023-02-13T00:30:22.310Z,78.31
2023-02-13T00:32:54.820Z,78.39
2023-02-13T00:35:28.793Z,78.58
2023-02-13T00:38:01.416Z,78.11
2023-02-13T00:40:33.414Z,78.04
2023-02-13T00:43:05.506Z,78.04
2023-02-13T00:45:38.708Z,77.97
2023-02-13T00:48:10.703Z,77.99
2023-02-13T00:50:42.757Z,77.95
2023-02-13T00:53:15.087Z,77.98
2023-02-13T00:55:47.019Z,77.94
2023-02-13T00:58:20.027Z,77.87
2023-02-13T01:00:53.546Z,77.89
2023-02-13T01:03:26.170Z,77.83
2023-02-13T01:05:59.076Z,77.85
2023-02-13T01:08:31.670Z,77.80
2023-02-13T01:11:04.001Z,77.79
2023-02-13T01:13:36.256Z,77.70
2023-02-13T01:16:08.707Z,77.70
2023-02-13T01:18:40.923Z,77.62
2023-02-13T01:21:18.933Z,77.54
2023-02-13T01:23:51.767Z,77.50
2023-02-13T01:26:25.091Z,77.46
2023-02-13T01:28:58.233Z,77.81
2023-02-13T01:31:30.187Z,77.38
2023-02-13T01:34:02.196Z,77.62
2023-02-13T01:36:34.221Z,77.09
2023-02-13T01:39:06.477Z,77.09
2023-02-13T01:41:39.132Z,77.06
2023-02-13T01:44:48.448Z,77.05
2023-02-13T01:47:23.456Z,77.07
2023-02-13T01:50:01.293Z,76.99
2023-02-13T01:52:35.143Z,76.96
2023-02-13T01:55:08.238Z,76.90
2023-02-13T01:57:44.668Z,76.84
2023-02-13T02:00:17.784Z,76.80
2023-02-13T02:02:51.967Z,76.71
2023-02-13T02:05:28.739Z,76.72
2023-02-13T02:08:03.528Z,76.78
2023-02-13T02:10:35.794Z,76.91
2023-02-13T02:13:18.868Z,77.08
2023-02-13T02:15:51.985Z,77.00
2023-02-13T02:18:26.035Z,77.02
2023-02-13T02:21:18.844Z,76.95
2023-02-13T02:24:09.163Z,76.85
2023-02-13T02:26:56.256Z,76.77
2023-02-13T02:29:47.810Z,76.79
2023-02-13T02:32:22.779Z,76.62
2023-02-13T02:35:01.060Z,76.55
2023-02-13T02:37:42.668Z,76.59
2023-02-13T02:40:23.353Z,76.73
2023-02-13T02:43:05.783Z,76.49
2023-02-13T02:45:40.764Z,76.45
2023-02-13T02:48:37.815Z,76.32
2023-02-13T02:51:12.941Z,76.26
2023-02-13T02:53:53.950Z,76.34
2023-02-13T02:56:29.991Z,76.27
2023-02-13T02:59:26.294Z,76.13
2023-02-13T03:02:18.030Z,76.20
2023-02-13T03:05:13.579Z,76.12
2023-02-13T03:07:45.769Z,76.28
2023-02-13T03:10:41.036Z,76.17
2023-02-13T03:13:21.675Z,76.08
2023-02-13T03:16:14.110Z,76.20
2023-02-13T03:19:06.836Z,76.30
2023-02-13T03:22:13.642Z,76.40
2023-02-13T03:24:58.720Z,76.28
2023-02-13T03:28:09.623Z,76.32
2023-02-13T03:30:47.945Z,76.34
2023-02-13T03:33:34.811Z,76.40
2023-02-13T03:36:43.649Z,76.50
2023-02-13T03:39:21.783Z,76.52
2023-02-13T03:42:02.978Z,76.63
2023-02-13T03:44:41.765Z,76.64
2023-02-13T03:47:16.040Z,76.59
2023-02-13T03:50:08.595Z,76.66
2023-02-13T03:52:58.690Z,76.72
2023-02-13T03:55:54.036Z,76.71
2023-02-13T03:58:47.059Z,76.92
2023-02-13T04:01:22.228Z,76.90
2023-02-13T04:04:13.736Z,76.85
2023-02-13T04:07:01.065Z,76.88
2023-02-13T04:09:36.074Z,76.86
2023-02-13T04:12:11.434Z,76.92
2023-02-13T04:14:52.586Z,76.97
2023-02-13T04:17:30.734Z,77.12
2023-02-13T04:20:03.319Z,77.31
2023-02-13T04:22:35.345Z,77.35
2023-02-13T04:25:08.365Z,77.44
2023-02-13T04:27:41.250Z,77.59
2023-02-13T04:30:15.517Z,77.54
2023-02-13T04:32:48.647Z,77.42
2023-02-13T04:35:21.313Z,77.54
2023-02-13T04:37:54.420Z,77.53
2023-02-13T04:40:27.746Z,77.59
2023-02-13T04:43:00.785Z,77.67
2023-02-13T04:45:38.852Z,77.66
2023-02-13T04:48:12.041Z,77.64
2023-02-13T04:50:45.464Z,77.69
2023-02-13T04:53:17.642Z,77.69
2023-02-13T04:55:50.014Z,77.74
2023-02-13T04:58:23.279Z,77.91
2023-02-13T05:00:56.126Z,77.83
2023-02-13T05:03:29.928Z,77.78
2023-02-13T05:06:02.868Z,77.80
2023-02-13T05:08:35.559Z,77.73
2023-02-13T05:11:08.798Z,77.92
2023-02-13T05:13:42.752Z,77.81
2023-02-13T05:16:15.412Z,77.74
2023-02-13T05:18:48.026Z,77.72
2023-02-13T05:21:38.288Z,77.83
2023-02-13T05:24:10.973Z,77.88
2023-02-13T05:26:43.569Z,77.88
2023-02-13T05:29:19.413Z,77.63
2023-02-13T05:31:56.614Z,77.84
2023-02-13T05:34:30.770Z,78.09
2023-02-13T05:37:03.059Z,77.91
2023-02-13T05:39:35.060Z,78.13
2023-02-13T05:42:09.378Z,77.77
2023-02-13T05:44:43.419Z,77.80
2023-02-13T05:47:17.176Z,77.81
2023-02-13T05:49:49.787Z,77.77
2023-02-13T05:52:21.906Z,77.72
2023-02-13T05:54:54.550Z,77.56
2023-02-13T05:57:27.871Z,77.35
2023-02-13T05:59:59.980Z,77.27
2023-02-13T06:02:33.869Z,77.33
2023-02-13T06:05:06.705Z,77.13
2023-02-13T06:07:39.127Z,77.34
2023-02-13T06:10:12.435Z,77.34
2023-02-13T06:12:45.539Z,77.20
2023-02-13T06:15:17.947Z,77.21
2023-02-13T06:17:50.323Z,77.22
2023-02-13T06:20:22.658Z,77.23
2023-02-13T06:22:55.368Z,77.11
2023-02-13T06:25:28.150Z,77.43
2023-02-13T06:28:00.813Z,77.46
2023-02-13T06:30:34.619Z,77.51
2023-02-13T06:33:08.043Z,77.54
2023-02-13T06:35:40.986Z,77.49
2023-02-13T06:38:13.809Z,77.31
2023-02-13T06:40:48.293Z,76.99
2023-02-13T06:43:22.058Z,76.68
2023-02-13T06:45:55.059Z,76.91
2023-02-13T06:48:29.290Z,76.93
2023-02-13T06:51:03.134Z,76.94
2023-02-13T06:53:35.350Z,76.86
2023-02-13T06:56:08.077Z,76.68
2023-02-13T06:58:40.520Z,76.30
2023-02-13T07:01:12.972Z,76.12
2023-02-13T07:03:45.813Z,75.92
2023-02-13T07:06:22.286Z,76.25
2023-02-13T07:08:56.102Z,76.27
2023-02-13T07:11:28.752Z,76.06
2023-02-13T07:14:01.651Z,76.06
2023-02-13T07:16:34.526Z,76.22
2023-02-13T07:19:07.424Z,76.29
2023-02-13T07:21:39.775Z,76.08
2023-02-13T07:24:13.100Z,75.99
2023-02-13T07:26:45.272Z,76.27
2023-02-13T07:29:18.120Z,76.28
2023-02-13T07:31:50.946Z,76.24
2023-02-13T07:34:24.451Z,75.97
2023-02-13T07:36:56.691Z,75.66
2023-02-13T07:39:29.335Z,75.16
2023-02-13T07:42:05.415Z,75.54
2023-02-13T07:44:37.718Z,75.34
2023-02-13T07:47:10.889Z,75.07
2023-02-13T07:49:44.729Z,74.88
2023-02-13T07:52:17.936Z,74.27
2023-02-13T07:54:51.685Z,74.42
2023-02-13T07:57:24.182Z,73.86
2023-02-13T07:59:57.595Z,74.42
2023-02-13T08:02:30.935Z,74.46
2023-02-13T08:05:03.297Z,74.62
2023-02-13T08:07:36.176Z,75.19
2023-02-13T08:10:27.757Z,74.63
2023-02-13T08:13:00.178Z,75.29
2023-02-13T08:15:32.436Z,75.65
2023-02-13T08:18:04.859Z,75.01
2023-02-13T08:20:37.184Z,74.89
2023-02-13T08:23:12.531Z,74.63
2023-02-13T08:25:45.153Z,74.66
2023-02-13T08:28:18.750Z,74.25
2023-02-13T08:30:51.479Z,74.37
2023-02-13T08:33:25.158Z,74.67
2023-02-13T08:35:57.631Z,74.56
2023-02-13T08:38:31.258Z,75.20
2023-02-13T08:41:03.672Z,74.63
2023-02-13T08:43:35.998Z,74.69
2023-02-13T08:46:08.147Z,74.65
2023-02-13T08:48:40.672Z,74.59
2023-02-13T08:51:15.284Z,74.82
2023-02-13T08:53:48.630Z,74.85
2023-02-13T08:56:21.258Z,74.92
2023-02-13T08:58:53.662Z,75.21
2023-02-13T09:01:26.474Z,75.14
2023-02-13T09:03:59.135Z,75.34
2023-02-13T09:06:32.742Z,75.36
2023-02-13T09:09:06.865Z,74.98
2023-02-13T09:11:39.647Z,75.12
2023-02-13T09:14:12.115Z,75.82
2023-02-13T09:16:45.479Z,75.65
2023-02-13T09:19:18.028Z,75.53
2023-02-13T09:21:50.034Z,75.86
2023-02-13T09:24:22.213Z,75.51
2023-02-13T09:26:54.225Z,75.46
2023-02-13T09:29:28.649Z,75.95
2023-02-13T09:32:01.145Z,75.89
2023-02-13T09:34:33.649Z,75.82
2023-02-13T09:37:05.923Z,75.90
2023-02-13T09:39:38.228Z,76.18
2023-02-13T09:42:17.715Z,76.70
2023-02-13T09:44:51.963Z,75.95
2023-02-13T09:47:35.744Z,76.12
2023-02-13T09:50:17.116Z,75.94
2023-02-13T09:52:52.787Z,76.21
2023-02-13T09:55:27.730Z,75.65
2023-02-13T09:58:12.943Z,75.92
2023-02-13T10:00:49.532Z,75.64
2023-02-13T10:03:33.899Z,75.37
2023-02-13T10:06:24.741Z,75.42
2023-02-13T10:09:16.589Z,75.31
2023-02-13T10:12:20.760Z,75.01
2023-02-13T10:14:55.963Z,75.40
2023-02-13T10:17:31.900Z,75.76
2023-02-13T10:20:06.937Z,75.78
2023-02-13T10:22:50.885Z,75.77
2023-02-13T10:25:34.850Z,76.11
2023-02-13T10:28:10.193Z,75.90
2023-02-13T10:30:51.349Z,76.10
2023-02-13T10:33:39.214Z,76.40
2023-02-13T10:36:15.572Z,76.35
2023-02-13T10:39:09.013Z,76.34
2023-02-13T10:42:05.184Z,76.34
2023-02-13T10:44:46.417Z,76.22
2023-02-13T10:47:44.556Z,76.71
2023-02-13T10:50:34.682Z,76.14
2023-02-13T10:53:16.016Z,75.83
2023-02-13T10:56:25.125Z,75.91
2023-02-13T10:59:10.128Z,76.05
2023-02-13T11:02:00.697Z,75.98
2023-02-13T11:04:34.170Z,76.19
2023-02-13T11:07:08.873Z,76.31
2023-02-13T11:09:44.785Z,76.93
2023-02-13T11:12:35.828Z,77.04
2023-02-13T11:15:11.219Z,77.22
2023-02-13T11:17:44.946Z,77.47
2023-02-13T11:20:38.362Z,77.00
2023-02-13T11:23:33.010Z,76.81
2023-02-13T11:26:09.222Z,76.61
2023-02-13T11:28:49.859Z,76.17
2023-02-13T11:31:28.353Z,75.87
2023-02-13T11:34:02.193Z,76.04
2023-02-13T11:36:36.921Z,76.45
2023-02-13T11:39:21.490Z,76.69
2023-02-13T11:41:54.300Z,77.10
2023-02-13T11:44:34.865Z,77.18
2023-02-13T11:47:07.685Z,77.45
2023-02-13T11:49:41.924Z,77.83
2023-02-13T11:52:29.357Z,77.98
2023-02-13T11:55:05.480Z,77.92
2023-02-13T11:57:38.799Z,78.31
2023-02-13T12:00:32.725Z,78.58
2023-02-13T12:03:08.301Z,78.23
2023-02-13T12:05:40.565Z,77.94
2023-02-13T12:08:13.148Z,77.90
2023-02-13T12:10:46.032Z,78.12
2023-02-13T12:13:27.902Z,78.01
2023-02-13T12:16:03.612Z,78.09
2023-02-13T12:18:41.847Z,78.05
2023-02-13T12:21:32.476Z,78.02
2023-02-13T12:24:13.803Z,78.10
2023-02-13T12:26:48.745Z,78.08
2023-02-13T12:29:55.622Z,78.13
2023-02-13T12:32:50.449Z,78.68
2023-02-13T12:35:47.208Z,78.90
2023-02-13T12:38:37.849Z,79.22
2023-02-13T12:41:25.637Z,79.30
2023-02-13T12:44:27.765Z,79.32
2023-02-13T12:47:21.552Z,79.32
2023-02-13T12:50:08.435Z,79.28
2023-02-13T12:52:49.377Z,79.40
2023-02-13T12:55:38.961Z,79.64
2023-02-13T12:58:25.781Z,79.71
2023-02-13T13:01:15.667Z,79.87
2023-02-13T13:04:13.409Z,79.93
2023-02-13T13:07:14.152Z,79.83
2023-02-13T13:09:49.592Z,80.05
2023-02-13T13:12:27.714Z,80.13
2023-02-13T13:15:14.661Z,80.23
2023-02-13T13:18:04.556Z,80.11
2023-02-13T13:20:45.991Z,80.26
2023-02-13T13:23:21.406Z,80.14
2023-02-13T13:26:13.077Z,80.18
2023-02-13T13:28:48.217Z,80.10
2023-02-13T13:31:23.537Z,80.27
2023-02-13T13:33:58.597Z,80.32
2023-02-13T13:36:36.906Z,80.18
2023-02-13T13:39:14.388Z,80.40
2023-02-13T13:42:14.924Z,80.52
2023-02-13T13:44:53.808Z,80.38
2023-02-13T13:47:45.126Z,80.42
2023-02-13T13:50:25.705Z,80.45
2023-02-13T13:53:11.797Z,80.64
2023-02-13T13:55:53.749Z,80.65
2023-02-13T13:58:38.263Z,80.56
2023-02-13T14:01:29.583Z,80.72
2023-02-13T14:04:07.294Z,80.93
2023-02-13T14:06:48.363Z,80.92
2023-02-13T14:09:29.265Z,81.01
2023-02-13T14:12:05.285Z,80.89
2023-02-13T14:14:40.288Z,81.14
2023-02-13T14:17:16.617Z,81.38
2023-02-13T14:19:52.275Z,81.58
2023-02-13T14:22:30.506Z,81.42
2023-02-13T14:25:06.589Z,81.47
2023-02-13T14:27:40.859Z,81.49
2023-02-13T14:30:34.760Z,81.57
2023-02-13T14:33:13.143Z,81.68
2023-02-13T14:35:45.767Z,81.79
2023-02-13T14:38:26.362Z,81.76
2023-02-13T14:40:58.997Z,81.97
2023-02-13T14:43:49.701Z,81.93
2023-02-13T14:46:28.422Z,81.98
2023-02-13T14:49:06.575Z,82.11
2023-02-13T14:51:41.958Z,82.06
2023-02-13T14:54:26.495Z,82.30
2023-02-13T14:57:10.756Z,82.42
2023-02-13T14:59:45.819Z,82.39
2023-02-13T15:02:26.810Z,82.41
2023-02-13T15:05:04.632Z,82.48
2023-02-13T15:07:42.010Z,82.57
2023-02-13T15:10:17.002Z,82.68
2023-02-13T15:12:52.337Z,82.71
2023-02-13T15:15:28.365Z,82.62
2023-02-13T15:18:06.343Z,82.81
2023-02-13T15:20:41.204Z,82.96
2023-02-13T15:23:19.044Z,82.90
2023-02-13T15:26:00.796Z,82.77
2023-02-13T15:28:34.871Z,82.83
2023-02-13T15:31:22.039Z,82.89
2023-02-13T15:33:54.289Z,82.92
2023-02-13T15:36:29.487Z,82.99
2023-02-13T15:39:08.023Z,82.96
2023-02-13T15:41:43.114Z,82.99
2023-02-13T15:44:30.156Z,82.99
2023-02-13T15:47:08.124Z,83.03
2023-02-13T15:49:43.079Z,82.99
2023-02-13T15:52:35.793Z,83.02
2023-02-13T15:55:09.627Z,83.23
2023-02-13T15:57:43.391Z,83.29
2023-02-13T16:00:18.589Z,83.28
2023-02-13T16:02:52.408Z,83.47
2023-02-13T16:05:39.346Z,83.58
2023-02-13T16:08:02.633Z,83.50
2023-02-13T16:10:37.528Z,83.60
2023-02-13T16:13:12.592Z,83.58
2023-02-13T16:15:45.094Z,83.51
2023-02-13T16:18:22.180Z,83.37
2023-02-13T16:20:58.173Z,83.64
2023-02-13T16:23:31.220Z,83.67
2023-02-13T16:26:06.227Z,83.67
2023-02-13T16:28:38.831Z,83.74
2023-02-13T16:31:14.143Z,83.74
2023-02-13T16:33:46.574Z,83.90
2023-02-13T16:36:21.832Z,83.99
2023-02-13T16:38:54.076Z,84.03
2023-02-13T16:41:32.009Z,84.12
2023-02-13T16:44:06.518Z,84.07
2023-02-13T16:46:43.054Z,84.03
2023-02-13T16:49:18.162Z,84.07
2023-02-13T16:51:59.552Z,84.04
2023-02-13T16:54:48.179Z,83.97
2023-02-13T16:57:23.672Z,84.01
2023-02-13T16:59:59.257Z,83.97
2023-02-13T17:02:41.095Z,84.01
2023-02-13T17:05:16.126Z,84.16
2023-02-13T17:07:52.479Z,84.19
2023-02-13T17:10:31.869Z,84.18
2023-02-13T17:13:12.682Z,84.12
2023-02-13T17:15:47.468Z,84.28
2023-02-13T17:18:19.647Z,84.05
2023-02-13T17:20:51.911Z,84.03
2023-02-13T17:23:25.614Z,84.12
2023-02-13T17:25:58.505Z,84.23
2023-02-13T17:28:31.040Z,84.30
2023-02-13T17:31:03.433Z,84.22
2023-02-13T17:33:35.552Z,84.31
2023-02-13T17:36:08.329Z,84.24
2023-02-13T17:38:40.481Z,84.27
2023-02-13T17:41:15.825Z,84.27
2023-02-13T17:43:48.019Z,84.18
2023-02-13T17:46:20.252Z,84.21
2023-02-13T17:48:53.143Z,84.35
2023-02-13T17:51:25.336Z,84.23
2023-02-13T17:53:57.598Z,84.23
2023-02-13T17:56:29.492Z,84.26
2023-02-13T17:59:01.522Z,84.29
2023-02-13T18:01:33.728Z,84.45
2023-02-13T18:04:05.907Z,84.54
2023-02-13T18:06:38.311Z,84.54
2023-02-13T18:09:10.532Z,84.51
2023-02-13T18:11:42.719Z,84.62
2023-02-13T18:14:15.153Z,84.63
2023-02-13T18:16:47.240Z,84.76
2023-02-13T18:19:19.555Z,84.82
2023-02-13T18:21:51.848Z,84.78
2023-02-13T18:24:23.765Z,84.84
2023-02-13T18:26:56.205Z,84.91
2023-02-13T18:29:28.212Z,84.94
2023-02-13T18:32:00.429Z,84.98
2023-02-13T18:34:33.406Z,85.10
2023-02-13T18:37:07.092Z,85.17
2023-02-13T18:39:39.817Z,85.21
2023-02-13T18:42:13.436Z,85.35
2023-02-13T18:44:45.931Z,85.36
2023-02-13T18:47:18.084Z,85.41
2023-02-13T18:49:50.172Z,85.45
2023-02-13T18:52:22.518Z,85.49
2023-02-13T18:54:55.186Z,85.60
2023-02-13T18:57:27.846Z,85.58
2023-02-13T18:59:59.981Z,85.66
2023-02-13T19:02:34.251Z,85.66
2023-02-13T19:05:06.714Z,85.69
2023-02-13T19:07:38.742Z,85.69
2023-02-13T19:10:10.900Z,85.77
2023-02-13T19:12:43.183Z,85.85
2023-02-13T19:15:15.834Z,85.86
2023-02-13T19:17:47.943Z,85.86
2023-02-13T19:20:20.001Z,85.80
2023-02-13T19:22:51.992Z,85.70
2023-02-13T19:25:24.269Z,85.66
2023-02-13T19:27:56.365Z,85.50
2023-02-13T19:30:29.101Z,85.55
2023-02-13T19:33:01.323Z,85.70
2023-02-13T19:35:33.399Z,85.85
2023-02-13T19:38:05.710Z,85.71
2023-02-13T19:40:37.965Z,85.75
2023-02-13T19:43:10.741Z,85.78
2023-02-13T19:45:43.789Z,85.86
2023-02-13T19:48:16.041Z,85.85
2023-02-13T19:50:47.946Z,85.91
2023-02-13T19:53:20.035Z,86.10
2023-02-13T19:55:53.310Z,86.09
2023-02-13T19:58:25.407Z,86.11
2023-02-13T20:00:58.138Z,86.11
2023-02-13T20:03:30.335Z,86.18
2023-02-13T20:06:08.782Z,86.27
2023-02-13T20:08:42.947Z,86.33
2023-02-13T20:11:16.531Z,86.36
2023-02-13T20:13:48.541Z,86.33
2023-02-13T20:16:24.061Z,86.08
2023-02-13T20:18:56.231Z,86.11
2023-02-13T20:21:28.365Z,86.30
2023-02-13T20:24:00.456Z,86.31
2023-02-13T20:26:33.414Z,86.28
2023-02-13T20:29:05.507Z,86.34
2023-02-13T20:31:39.765Z,86.37
2023-02-13T20:34:12.042Z,86.34
2023-02-13T20:36:44.069Z,86.32
2023-02-13T20:39:16.496Z,86.33
2023-02-13T20:41:50.484Z,86.36
2023-02-13T20:44:22.965Z,86.22
2023-02-13T20:46:55.972Z,86.16
2023-02-13T20:49:28.408Z,86.03
2023-02-13T20:52:00.969Z,86.16
2023-02-13T20:54:33.297Z,86.23
2023-02-13T20:57:06.585Z,86.21
2023-02-13T20:59:38.795Z,86.40
2023-02-13T21:02:12.651Z,86.34
2023-02-13T21:04:44.591Z,86.24
2023-02-13T21:07:16.439Z,86.28
2023-02-13T21:09:48.406Z,86.34
2023-02-13T21:12:20.455Z,86.36
2023-02-13T21:14:52.514Z,86.31
2023-02-13T21:17:24.377Z,86.34
2023-02-13T21:19:56.461Z,86.37
2023-02-13T21:22:28.664Z,86.47
2023-02-13T21:25:00.627Z,86.47
2023-02-13T21:27:32.999Z,86.31
2023-02-13T21:30:05.320Z,86.31
2023-02-13T21:32:39.632Z,86.31
2023-02-13T21:35:13.054Z,86.18
2023-02-13T21:37:45.322Z,86.11
2023-02-13T21:40:17.719Z,85.95
2023-02-13T21:42:51.112Z,86.01
2023-02-13T21:45:23.236Z,85.90
2023-02-13T21:47:57.992Z,86.08
2023-02-13T21:50:29.968Z,86.12
2023-02-13T21:53:02.001Z,86.14
2023-02-13T21:55:34.479Z,86.12
2023-02-13T21:58:06.612Z,86.12
2023-02-13T22:00:38.552Z,86.14
2023-02-13T22:03:10.448Z,86.16
2023-02-13T22:05:47.484Z,86.17
2023-02-13T22:08:19.383Z,86.28
2023-02-13T22:10:56.933Z,86.35
2023-02-13T22:13:30.134Z,86.27
2023-02-13T22:16:12.642Z,86.21
2023-02-13T22:18:46.304Z,86.14
2023-02-13T22:21:21.433Z,86.17
2023-02-13T22:23:53.869Z,85.97
2023-02-13T22:26:27.904Z,85.75
2023-02-13T22:29:05.901Z,85.24
2023-02-13T22:31:38.242Z,85.35
2023-02-13T22:34:14.528Z,85.37
2023-02-13T22:36:46.776Z,85.32
2023-02-13T22:39:19.110Z,85.51
2023-02-13T22:41:51.345Z,85.56
2023-02-13T22:44:23.244Z,85.57
2023-02-13T22:46:55.448Z,85.79
2023-02-13T22:49:27.420Z,85.62
2023-02-13T22:51:59.400Z,85.67
2023-02-13T22:54:31.993Z,85.44
2023-02-13T22:57:04.194Z,85.34
2023-02-13T22:59:40.089Z,85.01
2023-02-13T23:02:11.773Z,85.12
2023-02-13T23:04:44.188Z,84.66
2023-02-13T23:07:18.059Z,84.48
2023-02-13T23:09:50.210Z,84.32
2023-02-13T23:12:39.285Z,84.49
2023-02-13T23:15:14.345Z,84.06
2023-02-13T23:18:04.001Z,84.04
2023-02-13T23:20:36.166Z,83.85
2023-02-13T23:23:08.189Z,83.84
2023-02-13T23:25:40.407Z,83.68
2023-02-13T23:28:12.566Z,83.08
2023-02-13T23:30:44.747Z,82.79
2023-02-13T23:33:17.086Z,82.34
2023-02-13T23:35:48.885Z,82.07
2023-02-13T23:38:21.009Z,81.71
2023-02-13T23:40:53.219Z,81.04
2023-02-13T23:43:25.448Z,80.85
2023-02-13T23:45:57.354Z,80.51
2023-02-13T23:48:29.437Z,80.01
2023-02-13T23:51:02.449Z,80.41
2023-02-13T23:53:36.771Z,79.78
2023-02-13T23:56:08.214Z,80.00
2023-02-13T23:58:39.817Z,78.82
